sensor_id;sensor_type;location;lat;lon;timestamp;pressure;altitude;pressure_sealevel;temperature;humidity
63190;BME280;49286;44.460;26.114;2023-04-16T00:00:38;100099.59;;;10.56;100.00
63190;BME280;49286;44.460;26.114;2023-04-16T00:03:04;100099.56;;;10.53;100.00
63190;BME280;49286;44.460;26.114;2023-04-16T00:05:29;100180.69;;;10.99;100.00
63190;BME280;49286;44.460;26.114;2023-04-16T00:07:55;100183.28;;;11.08;100.00
63190;BME280;49286;44.460;26.114;2023-04-16T00:10:20;100071.66;;;10.44;100.00
63190;BME280;49286;44.460;26.114;2023-04-16T00:12:46;100076.91;;;10.43;100.00
63190;BME280;49286;44.460;26.114;2023-04-16T00:15:11;100143.06;;;11.00;100.00
63190;BME280;49286;44.460;26.114;2023-04-16T00:17:37;100087.38;;;10.41;100.00
63190;BME280;49286;44.460;26.114;2023-04-16T00:20:03;100202.50;;;11.13;100.00
63190;BME280;49286;44.460;26.114;2023-04-16T00:22:28;100070.81;;;10.31;100.00
63190;BME280;49286;44.460;26.114;2023-04-16T00:24:54;100198.22;;;10.95;100.00
63190;BME280;49286;44.460;26.114;2023-04-16T00:27:19;100070.88;;;10.13;100.00
63190;BME280;49286;44.460;26.114;2023-04-16T00:29:45;100090.09;;;10.10;100.00
63190;BME280;49286;44.460;26.114;2023-04-16T00:32:10;100190.47;;;10.71;100.00
63190;BME280;49286;44.460;26.114;2023-04-16T00:34:36;100159.97;;;10.42;100.00
63190;BME280;49286;44.460;26.114;2023-04-16T00:37:01;100190.53;;;10.51;100.00
63190;BME280;49286;44.460;26.114;2023-04-16T00:39:26;100189.66;;;10.56;100.00
63190;BME280;49286;44.460;26.114;2023-04-16T00:41:52;100078.00;;;9.65;100.00
63190;BME280;49286;44.460;26.114;2023-04-16T00:44:17;100179.22;;;10.18;100.00
63190;BME280;49286;44.460;26.114;2023-04-16T00:46:43;100192.34;;;10.30;100.00
63190;BME280;49286;44.460;26.114;2023-04-16T00:49:09;100077.16;;;9.46;100.00
63190;BME280;49286;44.460;26.114;2023-04-16T00:51:35;100194.13;;;9.98;100.00
63190;BME280;49286;44.460;26.114;2023-04-16T00:54:02;100165.31;;;9.75;100.00
63190;BME280;49286;44.460;26.114;2023-04-16T00:56:27;100141.75;;;9.65;100.00
63190;BME280;49286;44.460;26.114;2023-04-16T00:58:54;100176.66;;;9.78;100.00
63190;BME280;49286;44.460;26.114;2023-04-16T01:01:20;100154.84;;;9.51;100.00
63190;BME280;49286;44.460;26.114;2023-04-16T01:03:48;100178.41;;;9.61;100.00
63190;BME280;49286;44.460;26.114;2023-04-16T01:06:15;100078.00;;;8.91;100.00
63190;BME280;49286;44.460;26.114;2023-04-16T01:08:41;100041.38;;;8.71;100.00
63190;BME280;49286;44.460;26.114;2023-04-16T01:11:08;100057.91;;;8.67;100.00
63190;BME280;49286;44.460;26.114;2023-04-16T01:13:34;100045.69;;;8.58;100.00
63190;BME280;49286;44.460;26.114;2023-04-16T01:16:07;100188.00;;;9.33;100.00
63190;BME280;49286;44.460;26.114;2023-04-16T01:18:32;100132.13;;;9.09;100.00
63190;BME280;49286;44.460;26.114;2023-04-16T01:20:58;100035.25;;;8.74;100.00
63190;BME280;49286;44.460;26.114;2023-04-16T01:23:24;100163.56;;;9.44;100.00
63190;BME280;49286;44.460;26.114;2023-04-16T01:25:49;99922.69;;;7.98;100.00
63190;BME280;49286;44.460;26.114;2023-04-16T01:28:15;100133.00;;;9.22;100.00
63190;BME280;49286;44.460;26.114;2023-04-16T01:30:40;100133.88;;;9.28;100.00
63190;BME280;49286;44.460;26.114;2023-04-16T01:33:07;100122.53;;;9.09;100.00
63190;BME280;49286;44.460;26.114;2023-04-16T01:35:33;100124.28;;;9.14;100.00
63190;BME280;49286;44.460;26.114;2023-04-16T01:37:58;100092.84;;;9.11;100.00
63190;BME280;49286;44.460;26.114;2023-04-16T01:40:24;99982.84;;;8.37;100.00
63190;BME280;49286;44.460;26.114;2023-04-16T01:42:49;100116.41;;;9.15;100.00
63190;BME280;49286;44.460;26.114;2023-04-16T01:45:15;100074.53;;;8.92;100.00
63190;BME280;49286;44.460;26.114;2023-04-16T01:47:41;100021.25;;;8.56;100.00
63190;BME280;49286;44.460;26.114;2023-04-16T01:50:08;100082.38;;;8.92;100.00
63190;BME280;49286;44.460;26.114;2023-04-16T01:52:33;99941.84;;;8.08;100.00
63190;BME280;49286;44.460;26.114;2023-04-16T01:54:59;99978.47;;;8.25;100.00
63190;BME280;49286;44.460;26.114;2023-04-16T01:57:24;100072.78;;;8.93;100.00
63190;BME280;49286;44.460;26.114;2023-04-16T01:59:50;99918.31;;;8.02;100.00
63190;BME280;49286;44.460;26.114;2023-04-16T02:02:15;100017.78;;;8.59;100.00
63190;BME280;49286;44.460;26.114;2023-04-16T02:04:43;99930.53;;;8.21;100.00
63190;BME280;49286;44.460;26.114;2023-04-16T02:07:12;99897.41;;;8.00;100.00
63190;BME280;49286;44.460;26.114;2023-04-16T02:09:38;100027.41;;;8.84;100.00
63190;BME280;49286;44.460;26.114;2023-04-16T02:12:05;99915.75;;;8.17;100.00
63190;BME280;49286;44.460;26.114;2023-04-16T02:14:31;99995.16;;;8.72;100.00
63190;BME280;49286;44.460;26.114;2023-04-16T02:16:57;99996.00;;;8.80;100.00
63190;BME280;49286;44.460;26.114;2023-04-16T02:19:23;99978.56;;;8.59;100.00
63190;BME280;49286;44.460;26.114;2023-04-16T02:21:50;99840.75;;;7.76;100.00
63190;BME280;49286;44.460;26.114;2023-04-16T02:24:16;99859.09;;;7.92;100.00
63190;BME280;49286;44.460;26.114;2023-04-16T02:26:42;99962.00;;;8.52;100.00
63190;BME280;49286;44.460;26.114;2023-04-16T02:29:07;99872.13;;;7.93;100.00
63190;BME280;49286;44.460;26.114;2023-04-16T02:31:33;99958.50;;;8.44;100.00
63190;BME280;49286;44.460;26.114;2023-04-16T02:33:58;99942.81;;;8.53;100.00
63190;BME280;49286;44.460;26.114;2023-04-16T02:36:24;99832.06;;;7.76;100.00
63190;BME280;49286;44.460;26.114;2023-04-16T02:38:49;99877.38;;;8.04;100.00
63190;BME280;49286;44.460;26.114;2023-04-16T02:41:16;99797.22;;;7.63;100.00
63190;BME280;49286;44.460;26.114;2023-04-16T02:43:41;99946.31;;;8.49;100.00
63190;BME280;49286;44.460;26.114;2023-04-16T02:46:07;99814.63;;;7.67;100.00
63190;BME280;49286;44.460;26.114;2023-04-16T02:48:32;99936.72;;;8.51;100.00
63190;BME280;49286;44.460;26.114;2023-04-16T02:50:57;99821.66;;;7.94;100.00
63190;BME280;49286;44.460;26.114;2023-04-16T02:53:23;99921.03;;;8.42;100.00
63190;BME280;49286;44.460;26.114;2023-04-16T02:55:53;99889.63;;;8.37;100.00
63190;BME280;49286;44.460;26.114;2023-04-16T02:58:19;99894.00;;;8.44;100.00
63190;BME280;49286;44.460;26.114;2023-04-16T03:00:45;99930.63;;;8.48;100.00
63190;BME280;49286;44.460;26.114;2023-04-16T03:03:10;99806.84;;;8.04;100.00
63190;BME280;49286;44.460;26.114;2023-04-16T03:05:36;99913.19;;;8.88;100.00
63190;BME280;49286;44.460;26.114;2023-04-16T03:08:02;99914.06;;;8.67;100.00
63190;BME280;49286;44.460;26.114;2023-04-16T03:10:28;99902.72;;;8.54;100.00
63190;BME280;49286;44.460;26.114;2023-04-16T03:12:53;99808.59;;;8.08;100.00
63190;BME280;49286;44.460;26.114;2023-04-16T03:15:19;99866.09;;;8.54;100.00
63190;BME280;49286;44.460;26.114;2023-04-16T03:17:45;99902.72;;;8.82;100.00
63190;BME280;49286;44.460;26.114;2023-04-16T03:20:10;99789.41;;;8.00;100.00
63190;BME280;49286;44.460;26.114;2023-04-16T03:22:37;99772.88;;;7.87;100.00
63190;BME280;49286;44.460;26.114;2023-04-16T03:25:03;99896.63;;;8.69;100.00
63190;BME280;49286;44.460;26.114;2023-04-16T03:27:29;99864.38;;;8.52;100.00
63190;BME280;49286;44.460;26.114;2023-04-16T03:29:54;99702.34;;;7.76;100.00
63190;BME280;49286;44.460;26.114;2023-04-16T03:32:20;99863.50;;;8.62;100.00
63190;BME280;49286;44.460;26.114;2023-04-16T03:34:45;99776.38;;;7.97;100.00
63190;BME280;49286;44.460;26.114;2023-04-16T03:37:11;99894.88;;;8.56;100.00
63190;BME280;49286;44.460;26.114;2023-04-16T03:39:36;99725.00;;;7.64;100.00
63190;BME280;49286;44.460;26.114;2023-04-16T03:42:02;99854.81;;;8.48;100.00
63190;BME280;49286;44.460;26.114;2023-04-16T03:44:28;99797.28;;;8.03;100.00
63190;BME280;49286;44.460;26.114;2023-04-16T03:46:53;99855.66;;;8.45;100.00
63190;BME280;49286;44.460;26.114;2023-04-16T03:49:19;99886.16;;;8.57;100.00
63190;BME280;49286;44.460;26.114;2023-04-16T03:51:45;99745.88;;;7.71;100.00
63190;BME280;49286;44.460;26.114;2023-04-16T03:54:11;99846.94;;;8.40;100.00
63190;BME280;49286;44.460;26.114;2023-04-16T03:56:36;99756.34;;;7.82;100.00
63190;BME280;49286;44.460;26.114;2023-04-16T03:59:03;99859.16;;;8.49;100.00
63190;BME280;49286;44.460;26.114;2023-04-16T04:01:29;99792.91;;;8.14;100.00
63190;BME280;49286;44.460;26.114;2023-04-16T04:03:55;99749.38;;;7.78;100.00
63190;BME280;49286;44.460;26.114;2023-04-16T04:06:20;99872.22;;;8.61;100.00
63190;BME280;49286;44.460;26.114;2023-04-16T04:08:46;99873.09;;;8.69;100.00
63190;BME280;49286;44.460;26.114;2023-04-16T04:11:11;99875.72;;;8.69;100.00
63190;BME280;49286;44.460;26.114;2023-04-16T04:13:36;99864.38;;;8.72;100.00
63190;BME280;49286;44.460;26.114;2023-04-16T04:16:02;99886.16;;;8.87;100.00
63190;BME280;49286;44.460;26.114;2023-04-16T04:18:28;99780.72;;;8.32;100.00
63190;BME280;49286;44.460;26.114;2023-04-16T04:20:53;99858.25;;;8.77;100.00
63190;BME280;49286;44.460;26.114;2023-04-16T04:23:19;99823.41;;;8.60;100.00
63190;BME280;49286;44.460;26.114;2023-04-16T04:25:45;99747.59;;;8.23;100.00
63190;BME280;49286;44.460;26.114;2023-04-16T04:28:10;99739.75;;;8.26;100.00
63190;BME280;49286;44.460;26.114;2023-04-16T04:30:36;99741.53;;;8.41;100.00
63190;BME280;49286;44.460;26.114;2023-04-16T04:33:01;99738.03;;;8.43;100.00
63190;BME280;49286;44.460;26.114;2023-04-16T04:35:27;99886.94;;;9.25;100.00
63190;BME280;49286;44.460;26.114;2023-04-16T04:37:52;99764.16;;;8.53;100.00
63190;BME280;49286;44.460;26.114;2023-04-16T04:40:18;99889.53;;;9.28;100.00
63190;BME280;49286;44.460;26.114;2023-04-16T04:42:43;99754.53;;;8.56;100.00
63190;BME280;49286;44.460;26.114;2023-04-16T04:45:09;99755.44;;;8.52;100.00
63190;BME280;49286;44.460;26.114;2023-04-16T04:47:35;99749.28;;;8.70;100.00
63190;BME280;49286;44.460;26.114;2023-04-16T04:50:01;99893.72;;;9.72;100.00
63190;BME280;49286;44.460;26.114;2023-04-16T04:52:26;99872.91;;;9.40;100.00
63190;BME280;49286;44.460;26.114;2023-04-16T04:54:52;99876.34;;;9.54;100.00
63190;BME280;49286;44.460;26.114;2023-04-16T04:57:17;99782.31;;;9.02;100.00
63190;BME280;49286;44.460;26.114;2023-04-16T04:59:42;99896.34;;;9.72;100.00
63190;BME280;49286;44.460;26.114;2023-04-16T05:02:08;99780.53;;;9.10;100.00
63190;BME280;49286;44.460;26.114;2023-04-16T05:04:33;99833.50;;;9.60;100.00
63190;BME280;49286;44.460;26.114;2023-04-16T05:06:59;99926.00;;;9.83;100.00
63190;BME280;49286;44.460;26.114;2023-04-16T05:09:25;99928.47;;;10.08;100.00
63190;BME280;49286;44.460;26.114;2023-04-16T05:11:51;99918.88;;;10.05;100.00
63190;BME280;49286;44.460;26.114;2023-04-16T05:14:17;99892.81;;;9.71;100.00
63190;BME280;49286;44.460;26.114;2023-04-16T05:16:42;99783.13;;;9.15;100.00
63190;BME280;49286;44.460;26.114;2023-04-16T05:19:08;99902.34;;;9.96;100.00
63190;BME280;49286;44.460;26.114;2023-04-16T05:21:33;99844.88;;;9.59;100.00
63190;BME280;49286;44.460;26.114;2023-04-16T05:23:58;99789.19;;;9.24;100.00
63190;BME280;49286;44.460;26.114;2023-04-16T05:26:24;99909.22;;;10.09;100.00
63190;BME280;49286;44.460;26.114;2023-04-16T05:28:50;99853.53;;;9.73;100.00
63190;BME280;49286;44.460;26.114;2023-04-16T05:31:15;99900.56;;;9.96;100.00
63190;BME280;49286;44.460;26.114;2023-04-16T05:33:40;99769.91;;;9.38;100.00
63190;BME280;49286;44.460;26.114;2023-04-16T05:36:06;99811.69;;;9.61;100.00
63190;BME280;49286;44.460;26.114;2023-04-16T05:38:31;99780.22;;;9.70;100.00
63190;BME280;49286;44.460;26.114;2023-04-16T05:40:57;99918.47;;;10.67;100.00
63190;BME280;49286;44.460;26.114;2023-04-16T05:43:23;99785.31;;;9.88;100.00
63190;BME280;49286;44.460;26.114;2023-04-16T05:45:48;99830.69;;;9.97;100.00
63190;BME280;49286;44.460;26.114;2023-04-16T05:48:14;99934.09;;;10.81;100.00
63190;BME280;49286;44.460;26.114;2023-04-16T05:50:39;99947.91;;;10.99;100.00
63190;BME280;49286;44.460;26.114;2023-04-16T05:53:08;99818.19;;;10.35;100.00
63190;BME280;49286;44.460;26.114;2023-04-16T05:55:34;99938.84;;;11.31;100.00
63190;BME280;49286;44.460;26.114;2023-04-16T05:58:01;99995.03;;;11.98;100.00
63190;BME280;49286;44.460;26.114;2023-04-16T06:00:29;100000.72;;;11.60;100.00
63190;BME280;49286;44.460;26.114;2023-04-16T06:02:54;100009.75;;;11.34;100.00
63190;BME280;49286;44.460;26.114;2023-04-16T06:05:20;99872.16;;;10.61;100.00
63190;BME280;49286;44.460;26.114;2023-04-16T06:07:46;99890.38;;;10.80;100.00
63190;BME280;49286;44.460;26.114;2023-04-16T06:10:11;99876.66;;;10.45;100.00
63190;BME280;49286;44.460;26.114;2023-04-16T06:12:36;100014.63;;;11.68;100.00
63190;BME280;49286;44.460;26.114;2023-04-16T06:15:02;99896.44;;;10.83;100.00
63190;BME280;49286;44.460;26.114;2023-04-16T06:17:28;100040.75;;;11.82;100.00
63190;BME280;49286;44.460;26.114;2023-04-16T06:19:53;100027.22;;;12.19;100.00
63190;BME280;49286;44.460;26.114;2023-04-16T06:22:19;100017.25;;;11.71;100.00
63190;BME280;49286;44.460;26.114;2023-04-16T06:24:45;100047.56;;;12.06;100.00
63190;BME280;49286;44.460;26.114;2023-04-16T06:27:10;100024.56;;;12.20;100.00
63190;BME280;49286;44.460;26.114;2023-04-16T06:29:36;100035.28;;;12.07;100.00
63190;BME280;49286;44.460;26.114;2023-04-16T06:32:01;99908.31;;;11.21;100.00
63190;BME280;49286;44.460;26.114;2023-04-16T06:34:28;99886.38;;;11.27;100.00
63190;BME280;49286;44.460;26.114;2023-04-16T06:36:53;100035.81;;;12.92;100.00
63190;BME280;49286;44.460;26.114;2023-04-16T06:39:19;99940.66;;;12.03;100.00
63190;BME280;49286;44.460;26.114;2023-04-16T06:41:47;99932.25;;;11.72;100.00
63190;BME280;49286;44.460;26.114;2023-04-16T06:44:12;99913.66;;;11.86;100.00
63190;BME280;49286;44.460;26.114;2023-04-16T06:46:38;99946.53;;;12.21;100.00
63190;BME280;49286;44.460;26.114;2023-04-16T06:49:04;99943.25;;;12.05;100.00
63190;BME280;49286;44.460;26.114;2023-04-16T06:51:30;100062.53;;;12.69;100.00
63190;BME280;49286;44.460;26.114;2023-04-16T06:53:55;99951.59;;;12.36;100.00
63190;BME280;49286;44.460;26.114;2023-04-16T06:56:21;100057.13;;;12.78;100.00
63190;BME280;49286;44.460;26.114;2023-04-16T06:58:46;100059.31;;;13.06;100.00
63190;BME280;49286;44.460;26.114;2023-04-16T07:01:12;99949.56;;;12.54;100.00
63190;BME280;49286;44.460;26.114;2023-04-16T07:03:37;99950.06;;;12.76;100.00
63190;BME280;49286;44.460;26.114;2023-04-16T07:06:03;100080.59;;;13.48;100.00
63190;BME280;49286;44.460;26.114;2023-04-16T07:08:28;100081.97;;;13.70;100.00
63190;BME280;49286;44.460;26.114;2023-04-16T07:10:54;99964.00;;;12.84;100.00
63190;BME280;49286;44.460;26.114;2023-04-16T07:13:20;100061.88;;;13.10;100.00
63190;BME280;49286;44.460;26.114;2023-04-16T07:15:46;100003.97;;;13.09;100.00
63190;BME280;49286;44.460;26.114;2023-04-16T07:18:11;100070.53;;;13.71;100.00
63190;BME280;49286;44.460;26.114;2023-04-16T07:20:37;99981.13;;;13.08;100.00
63190;BME280;49286;44.460;26.114;2023-04-16T07:23:02;100101.69;;;13.98;100.00
63190;BME280;49286;44.460;26.114;2023-04-16T07:25:27;100083.19;;;13.99;100.00
63190;BME280;49286;44.460;26.114;2023-04-16T07:27:53;100109.91;;;13.81;100.00
63190;BME280;49286;44.460;26.114;2023-04-16T07:30:18;100100.63;;;14.08;100.00
63190;BME280;49286;44.460;26.114;2023-04-16T07:32:44;100104.88;;;14.15;100.00
63190;BME280;49286;44.460;26.114;2023-04-16T07:35:10;100106.13;;;13.96;100.00
63190;BME280;49286;44.460;26.114;2023-04-16T07:37:35;100091.63;;;14.18;100.00
63190;BME280;49286;44.460;26.114;2023-04-16T07:40:01;99983.47;;;13.28;100.00
63190;BME280;49286;44.460;26.114;2023-04-16T07:42:27;100095.59;;;13.96;100.00
63190;BME280;49286;44.460;26.114;2023-04-16T07:44:53;100095.44;;;14.02;100.00
63190;BME280;49286;44.460;26.114;2023-04-16T07:47:19;100106.31;;;14.75;100.00
63190;BME280;49286;44.460;26.114;2023-04-16T07:49:44;100115.97;;;14.76;100.00
63190;BME280;49286;44.460;26.114;2023-04-16T07:52:10;100006.31;;;14.16;100.00
63190;BME280;49286;44.460;26.114;2023-04-16T07:54:36;100123.22;;;15.05;100.00
63190;BME280;49286;44.460;26.114;2023-04-16T07:57:01;100007.88;;;14.67;100.00
63190;BME280;49286;44.460;26.114;2023-04-16T07:59:27;100107.53;;;15.35;100.00
63190;BME280;49286;44.460;26.114;2023-04-16T08:01:52;100110.78;;;15.46;100.00
63190;BME280;49286;44.460;26.114;2023-04-16T08:04:18;100121.72;;;15.31;100.00
63190;BME280;49286;44.460;26.114;2023-04-16T08:06:51;100024.81;;;14.58;100.00
63190;BME280;49286;44.460;26.114;2023-04-16T08:09:22;100150.38;;;15.49;100.00
63190;BME280;49286;44.460;26.114;2023-04-16T08:11:48;100155.81;;;15.80;100.00
63190;BME280;49286;44.460;26.114;2023-04-16T08:14:15;100158.91;;;15.96;100.00
63190;BME280;49286;44.460;26.114;2023-04-16T08:16:41;100147.22;;;15.71;100.00
63190;BME280;49286;44.460;26.114;2023-04-16T08:19:06;100062.47;;;15.39;100.00
63190;BME280;49286;44.460;26.114;2023-04-16T08:21:32;100066.47;;;15.56;100.00
63190;BME280;49286;44.460;26.114;2023-04-16T08:23:58;100189.00;;;16.27;100.00
63190;BME280;49286;44.460;26.114;2023-04-16T08:26:23;100135.53;;;15.81;100.00
63190;BME280;49286;44.460;26.114;2023-04-16T08:28:49;100113.75;;;15.68;100.00
63190;BME280;49286;44.460;26.114;2023-04-16T08:31:14;100184.63;;;16.25;100.00
63190;BME280;49286;44.460;26.114;2023-04-16T08:33:40;100166.59;;;16.07;100.00
63190;BME280;49286;44.460;26.114;2023-04-16T08:36:05;100191.25;;;16.42;100.00
63190;BME280;49286;44.460;26.114;2023-04-16T08:38:31;100187.06;;;16.64;100.00
63190;BME280;49286;44.460;26.114;2023-04-16T08:41:02;100187.63;;;16.76;100.00
63190;BME280;49286;44.460;26.114;2023-04-16T08:43:32;100182.38;;;16.74;100.00
63190;BME280;49286;44.460;26.114;2023-04-16T08:45:59;100143.69;;;16.37;100.00
63190;BME280;49286;44.460;26.114;2023-04-16T08:48:28;100114.34;;;15.81;100.00
63190;BME280;49286;44.460;26.114;2023-04-16T08:50:59;100058.50;;;14.86;100.00
63190;BME280;49286;44.460;26.114;2023-04-16T08:53:31;100178.38;;;16.28;100.00
63190;BME280;49286;44.460;26.114;2023-04-16T08:56:03;100166.75;;;15.29;100.00
63190;BME280;49286;44.460;26.114;2023-04-16T08:58:30;100108.44;;;15.70;100.00
63190;BME280;49286;44.460;26.114;2023-04-16T09:00:59;100107.38;;;15.78;100.00
63190;BME280;49286;44.460;26.114;2023-04-16T09:03:28;100068.34;;;14.79;100.00
63190;BME280;49286;44.460;26.114;2023-04-16T09:05:54;100168.56;;;15.99;100.00
63190;BME280;49286;44.460;26.114;2023-04-16T09:08:21;100064.53;;;15.62;100.00
63190;BME280;49286;44.460;26.114;2023-04-16T09:10:47;100164.03;;;16.04;100.00
63190;BME280;49286;44.460;26.114;2023-04-16T09:13:13;100165.09;;;16.30;100.00
63190;BME280;49286;44.460;26.114;2023-04-16T09:15:41;100196.06;;;16.26;100.00
63190;BME280;49286;44.460;26.114;2023-04-16T09:18:07;100095.25;;;15.68;100.00
63190;BME280;49286;44.460;26.114;2023-04-16T09:20:33;100089.94;;;15.68;100.00
63190;BME280;49286;44.460;26.114;2023-04-16T09:22:58;100196.66;;;16.04;100.00
63190;BME280;49286;44.460;26.114;2023-04-16T09:25:24;100200.72;;;15.83;100.00
63190;BME280;49286;44.460;26.114;2023-04-16T09:27:50;100072.41;;;14.55;100.00
63190;BME280;49286;44.460;26.114;2023-04-16T09:30:23;100175.28;;;15.40;100.00
63190;BME280;49286;44.460;26.114;2023-04-16T09:33:15;100176.16;;;15.78;100.00
63190;BME280;49286;44.460;26.114;2023-04-16T09:35:51;100091.63;;;14.62;100.00
63190;BME280;49286;44.460;26.114;2023-04-16T09:38:18;100104.03;;;14.97;100.00
63190;BME280;49286;44.460;26.114;2023-04-16T09:40:44;100154.66;;;14.78;100.00
63190;BME280;49286;44.460;26.114;2023-04-16T09:43:13;100145.84;;;15.17;100.00
63190;BME280;49286;44.460;26.114;2023-04-16T09:48:14;100160.19;;;15.46;100.00
63190;BME280;49286;44.460;26.114;2023-04-16T09:50:48;100160.63;;;15.26;100.00
63190;BME280;49286;44.460;26.114;2023-04-16T09:53:23;100154.94;;;15.43;100.00
63190;BME280;49286;44.460;26.114;2023-04-16T09:55:49;100166.91;;;15.95;100.00
63190;BME280;49286;44.460;26.114;2023-04-16T09:58:17;100135.53;;;15.44;100.00
63190;BME280;49286;44.460;26.114;2023-04-16T10:00:43;100024.94;;;14.50;100.00
63190;BME280;49286;44.460;26.114;2023-04-16T10:03:08;100150.94;;;15.26;100.00
63190;BME280;49286;44.460;26.114;2023-04-16T10:05:34;100117.56;;;15.22;100.00
63190;BME280;49286;44.460;26.114;2023-04-16T10:08:01;100137.75;;;14.86;100.00
63190;BME280;49286;44.460;26.114;2023-04-16T10:10:27;100099.47;;;14.65;100.00
63190;BME280;49286;44.460;26.114;2023-04-16T10:12:54;100106.16;;;14.81;100.00
63190;BME280;49286;44.460;26.114;2023-04-16T10:15:20;100104.47;;;15.17;100.00
63190;BME280;49286;44.460;26.114;2023-04-16T10:17:46;100024.94;;;14.52;100.00
63190;BME280;49286;44.460;26.114;2023-04-16T10:20:13;99982.75;;;13.65;100.00
63190;BME280;49286;44.460;26.114;2023-04-16T10:22:40;100085.03;;;14.81;100.00
63190;BME280;49286;44.460;26.114;2023-04-16T10:25:06;100062.59;;;14.18;100.00
63190;BME280;49286;44.460;26.114;2023-04-16T10:27:32;100032.19;;;14.42;100.00
63190;BME280;49286;44.460;26.114;2023-04-16T10:29:59;99952.75;;;14.51;100.00
63190;BME280;49286;44.460;26.114;2023-04-16T10:32:25;100084.91;;;15.59;100.00
63190;BME280;49286;44.460;26.114;2023-04-16T10:34:54;99998.53;;;15.25;100.00
63190;BME280;49286;44.460;26.114;2023-04-16T10:37:28;100098.19;;;15.57;100.00
63190;BME280;49286;44.460;26.114;2023-04-16T10:39:55;100068.78;;;14.98;100.00
63190;BME280;49286;44.460;26.114;2023-04-16T10:42:20;99976.41;;;14.93;100.00
63190;BME280;49286;44.460;26.114;2023-04-16T10:44:46;100079.13;;;15.07;100.00
63190;BME280;49286;44.460;26.114;2023-04-16T10:47:12;100095.28;;;15.32;100.00
63190;BME280;49286;44.460;26.114;2023-04-16T10:49:39;100009.41;;;14.77;100.00
63190;BME280;49286;44.460;26.114;2023-04-16T10:52:14;100095.66;;;15.53;100.00
63190;BME280;49286;44.460;26.114;2023-04-16T10:54:45;100079.66;;;15.57;100.00
63190;BME280;49286;44.460;26.114;2023-04-16T10:57:16;100067.34;;;15.56;100.00
63190;BME280;49286;44.460;26.114;2023-04-16T10:59:42;100099.69;;;15.32;100.00
63190;BME280;49286;44.460;26.114;2023-04-16T11:02:17;100101.31;;;15.37;100.00
63190;BME280;49286;44.460;26.114;2023-04-16T11:04:49;99957.28;;;14.46;100.00
63190;BME280;49286;44.460;26.114;2023-04-16T11:07:17;100054.50;;;15.05;100.00
63190;BME280;49286;44.460;26.114;2023-04-16T11:12:20;100038.06;;;14.94;100.00
63190;BME280;49286;44.460;26.114;2023-04-16T11:14:49;100062.94;;;14.85;100.00
63190;BME280;49286;44.460;26.114;2023-04-16T11:17:15;99940.66;;;14.02;100.00
63190;BME280;49286;44.460;26.114;2023-04-16T11:19:42;100006.00;;;14.33;100.00
63190;BME280;49286;44.460;26.114;2023-04-16T11:22:11;99895.66;;;13.69;100.00
63190;BME280;49286;44.460;26.114;2023-04-16T11:24:37;99993.19;;;14.53;100.00
63190;BME280;49286;44.460;26.114;2023-04-16T11:27:05;99879.00;;;14.08;100.00
63190;BME280;49286;44.460;26.114;2023-04-16T11:29:30;99894.66;;;13.77;100.00
63190;BME280;49286;44.460;26.114;2023-04-16T11:31:56;99987.81;;;14.60;100.00
63190;BME280;49286;44.460;26.114;2023-04-16T11:34:21;99863.69;;;13.44;100.00
63190;BME280;49286;44.460;26.114;2023-04-16T11:36:49;99846.97;;;13.45;100.00
63190;BME280;49286;44.460;26.114;2023-04-16T11:39:14;99897.56;;;14.05;100.00
63190;BME280;49286;44.460;26.114;2023-04-16T11:41:48;99940.75;;;14.38;100.00
63190;BME280;49286;44.460;26.114;2023-04-16T11:44:26;99948.50;;;14.46;100.00
63190;BME280;49286;44.460;26.114;2023-04-16T11:46:52;99933.84;;;14.32;100.00
63190;BME280;49286;44.460;26.114;2023-04-16T11:49:30;99931.81;;;14.44;100.00
63190;BME280;49286;44.460;26.114;2023-04-16T11:51:56;99966.25;;;14.39;100.00
63190;BME280;49286;44.460;26.114;2023-04-16T11:54:23;99850.81;;;13.71;100.00
63190;BME280;49286;44.460;26.114;2023-04-16T11:56:50;99958.94;;;14.11;100.00
63190;BME280;49286;44.460;26.114;2023-04-16T11:59:20;99991.81;;;14.37;100.00
63190;BME280;49286;44.460;26.114;2023-04-16T12:01:51;99963.31;;;14.51;100.00
63190;BME280;49286;44.460;26.114;2023-04-16T12:04:21;99991.91;;;14.32;100.00
63190;BME280;49286;44.460;26.114;2023-04-16T12:07:11;100003.19;;;14.39;100.00
63190;BME280;49286;44.460;26.114;2023-04-16T12:09:39;99897.34;;;13.73;100.00
63190;BME280;49286;44.460;26.114;2023-04-16T12:12:05;100002.47;;;14.32;100.00
63190;BME280;49286;44.460;26.114;2023-04-16T12:14:31;99886.88;;;13.69;100.00
63190;BME280;49286;44.460;26.114;2023-04-16T12:17:19;100009.53;;;14.30;100.00
63190;BME280;49286;44.460;26.114;2023-04-16T12:19:51;99975.31;;;13.85;100.00
63190;BME280;49286;44.460;26.114;2023-04-16T12:22:36;99873.13;;;13.08;100.00
63190;BME280;49286;44.460;26.114;2023-04-16T12:25:04;99981.31;;;13.93;100.00
63190;BME280;49286;44.460;26.114;2023-04-16T12:27:52;100030.66;;;13.88;100.00
63190;BME280;49286;44.460;26.114;2023-04-16T12:30:21;99999.50;;;13.62;100.00
63190;BME280;49286;44.460;26.114;2023-04-16T12:32:49;99927.88;;;13.42;100.00
63190;BME280;49286;44.460;26.114;2023-04-16T12:35:32;99947.34;;;13.33;100.00
63190;BME280;49286;44.460;26.114;2023-04-16T12:37:58;99913.56;;;13.05;100.00
63190;BME280;49286;44.460;26.114;2023-04-16T12:40:23;99896.81;;;13.09;100.00